createdAt,value
2019-03-05T00:00:47.304Z,7.30
2019-03-05T00:03:17.861Z,7.30
2019-03-05T00:05:48.783Z,7.30
2019-03-05T00:08:19.327Z,7.30
2019-03-05T00:10:49.860Z,7.30
2019-03-05T00:13:20.428Z,7.30
2019-03-05T00:15:51.715Z,7.20
2019-03-05T00:18:22.269Z,7.10
2019-03-05T00:20:53.008Z,7.10
2019-03-05T00:23:45.219Z,7.10
2019-03-05T00:26:16.164Z,7.10
2019-03-05T00:29:39.585Z,7.10
2019-03-05T00:32:10.074Z,7.10
2019-03-05T00:35:17.411Z,7.00
2019-03-05T00:37:57.481Z,7.00
2019-03-05T00:40:35.967Z,7.00
2019-03-05T00:43:54.594Z,7.00
2019-03-05T00:46:51.875Z,7.10
2019-03-05T00:49:58.469Z,7.10
2019-03-05T00:53:10.827Z,7.10
2019-03-05T00:56:16.333Z,7.10
2019-03-05T00:59:04.685Z,7.10
2019-03-05T01:02:14.957Z,7.10
2019-03-05T01:05:35.343Z,7.00
2019-03-05T01:08:05.956Z,6.90
2019-03-05T01:10:36.622Z,6.90
2019-03-05T01:13:07.098Z,6.80
2019-03-05T01:15:37.893Z,6.80
2019-03-05T01:18:08.529Z,6.70
2019-03-05T01:20:38.999Z,6.70
2019-03-05T01:23:09.592Z,6.70
2019-03-05T01:25:40.115Z,6.60
2019-03-05T01:28:11.026Z,6.60
2019-03-05T01:31:02.057Z,6.60
2019-03-05T01:33:38.448Z,6.50
2019-03-05T01:36:15.916Z,6.40
2019-03-05T01:39:01.678Z,6.40
2019-03-05T01:41:33.809Z,6.30
2019-03-05T01:44:04.480Z,6.30
2019-03-05T01:46:34.929Z,6.40
2019-03-05T01:49:06.486Z,6.30
2019-03-05T01:51:36.962Z,6.30
2019-03-05T01:54:07.501Z,6.30
2019-03-05T01:56:37.967Z,6.30
2019-03-05T01:59:08.428Z,6.30
2019-03-05T02:01:38.932Z,6.20
2019-03-05T02:04:09.460Z,6.20
2019-03-05T02:06:39.860Z,6.20
2019-03-05T02:09:11.162Z,6.20
2019-03-05T02:11:42.361Z,6.20
2019-03-05T02:14:14.066Z,6.20
2019-03-05T02:16:45.925Z,6.20
2019-03-05T02:19:39.740Z,6.20
2019-03-05T02:22:31.608Z,6.20
2019-03-05T02:25:35.304Z,6.10
2019-03-05T02:28:58.551Z,6.00
2019-03-05T02:32:12.739Z,6.00
2019-03-05T02:35:14.701Z,5.90
2019-03-05T02:38:13.774Z,5.80
2019-03-05T02:41:15.909Z,5.70
2019-03-05T02:44:20.044Z,5.60
2019-03-05T02:47:46.542Z,5.50
2019-03-05T02:50:57.420Z,5.50
2019-03-05T02:53:55.248Z,5.50
2019-03-05T02:56:43.003Z,5.40
2019-03-05T02:59:11.815Z,5.40
2019-03-05T03:02:07.124Z,5.30
2019-03-05T03:04:41.192Z,5.30
2019-03-05T03:07:11.752Z,5.30
2019-03-05T03:10:14.295Z,5.30
2019-03-05T03:12:45.104Z,5.20
2019-03-05T03:15:16.821Z,5.20
2019-03-05T03:17:48.113Z,5.10
2019-03-05T03:20:20.520Z,5.10
2019-03-05T03:22:51.150Z,5.10
2019-03-05T03:25:25.231Z,5.10
2019-03-05T03:27:55.715Z,5.10
2019-03-05T03:30:28.056Z,5.10
2019-03-05T03:32:58.546Z,5.10
2019-03-05T03:35:30.117Z,5.10
2019-03-05T03:38:00.694Z,5.10
2019-03-05T03:40:31.223Z,5.10
2019-03-05T03:43:01.977Z,5.10
2019-03-05T03:45:32.475Z,5.10
2019-03-05T03:48:02.967Z,5.20
2019-03-05T03:50:33.424Z,5.10
2019-03-05T03:53:03.876Z,5.10
2019-03-05T03:55:34.634Z,5.10
2019-03-05T03:58:05.239Z,5.10
2019-03-05T04:00:35.803Z,5.20
2019-03-05T04:03:06.247Z,5.10
2019-03-05T04:05:36.823Z,5.20
2019-03-05T04:08:10.296Z,5.20
2019-03-05T04:10:39.565Z,5.20
2019-03-05T04:13:09.970Z,5.20
2019-03-05T04:15:40.531Z,5.10
2019-03-05T04:18:11.004Z,5.20
2019-03-05T04:20:59.683Z,5.20
2019-03-05T04:23:30.213Z,5.10
2019-03-05T04:26:00.768Z,5.10
2019-03-05T04:28:31.251Z,5.10
2019-03-05T04:31:01.760Z,5.10
2019-03-05T04:33:32.222Z,5.10
2019-03-05T04:36:02.967Z,5.10
2019-03-05T04:38:33.540Z,5.10
2019-03-05T04:41:04.098Z,5.10
2019-03-05T04:43:34.630Z,5.10
2019-03-05T04:46:24.098Z,5.10
2019-03-05T04:49:28.916Z,5.00
2019-03-05T04:52:08.902Z,5.00
2019-03-05T04:54:39.456Z,4.90
2019-03-05T04:57:09.892Z,4.90
2019-03-05T04:59:40.431Z,5.00
2019-03-05T05:02:10.921Z,4.90
2019-03-05T05:04:41.394Z,4.90
2019-03-05T05:07:11.922Z,4.90
2019-03-05T05:09:42.452Z,5.00
2019-03-05T05:12:12.897Z,5.00
2019-03-05T05:14:43.396Z,5.00
2019-03-05T05:17:13.967Z,5.00
2019-03-05T05:19:44.486Z,5.10
2019-03-05T05:22:14.938Z,5.10
2019-03-05T05:24:45.718Z,5.00
2019-03-05T05:27:16.328Z,5.10
2019-03-05T05:29:46.833Z,5.10
2019-03-05T05:32:17.410Z,5.10
2019-03-05T05:34:47.862Z,5.00
2019-03-05T05:37:18.366Z,5.00
2019-03-05T05:40:37.787Z,5.00
2019-03-05T05:43:11.201Z,5.00
2019-03-05T05:45:44.314Z,5.00
2019-03-05T05:48:14.718Z,5.00
2019-03-05T05:50:45.195Z,5.10
2019-03-05T05:53:15.731Z,5.10
2019-03-05T05:55:46.320Z,5.10
2019-03-05T05:58:16.933Z,5.20
2019-03-05T06:00:52.888Z,5.30
2019-03-05T06:03:23.445Z,5.40
2019-03-05T06:05:53.962Z,5.40
2019-03-05T06:08:24.526Z,5.40
2019-03-05T06:10:55.045Z,5.40
2019-03-05T06:13:25.708Z,5.50
2019-03-05T06:15:56.200Z,5.60
2019-03-05T06:18:26.844Z,5.70
2019-03-05T06:20:57.445Z,5.70
2019-03-05T06:23:28.015Z,5.80
2019-03-05T06:25:58.541Z,5.80
2019-03-05T06:28:29.054Z,5.90
2019-03-05T06:30:59.534Z,6.00
2019-03-05T06:33:30.120Z,6.10
2019-03-05T06:36:00.834Z,6.20
2019-03-05T06:38:31.422Z,6.20
2019-03-05T06:41:01.924Z,6.30
2019-03-05T06:43:32.357Z,6.40
2019-03-05T06:46:02.960Z,6.40
2019-03-05T06:48:33.428Z,6.40
2019-03-05T06:51:03.940Z,6.40
2019-03-05T06:53:34.445Z,6.30
2019-03-05T06:56:04.946Z,6.30
2019-03-05T06:58:35.444Z,6.30
2019-03-05T07:01:05.936Z,6.30
2019-03-05T07:03:36.463Z,6.30
2019-03-05T07:06:42.483Z,6.30
2019-03-05T07:09:40.721Z,6.30
2019-03-05T07:12:35.559Z,6.20
2019-03-05T07:15:33.326Z,6.30
2019-03-05T07:18:12.089Z,6.20
2019-03-05T07:21:04.899Z,6.30
2019-03-05T07:24:05.844Z,6.30
2019-03-05T07:26:36.308Z,6.40
2019-03-05T07:29:06.949Z,6.40
2019-03-05T07:31:37.393Z,6.40
2019-03-05T07:34:11.975Z,6.40
2019-03-05T07:36:45.123Z,6.50
2019-03-05T07:39:20.086Z,6.70
2019-03-05T07:41:50.697Z,7.00
2019-03-05T07:44:21.232Z,7.30
2019-03-05T07:46:51.736Z,7.30
2019-03-05T07:49:22.192Z,7.40
2019-03-05T07:51:52.782Z,7.50
2019-03-05T07:54:23.242Z,7.60
2019-03-05T07:56:53.769Z,7.80
2019-03-05T07:59:25.354Z,8.10
2019-03-05T08:01:55.930Z,8.50
2019-03-05T08:04:26.632Z,8.80
2019-03-05T08:06:57.076Z,8.80
2019-03-05T08:09:38.531Z,8.80
2019-03-05T08:12:50.273Z,8.80
2019-03-05T08:16:01.894Z,8.70
2019-03-05T08:18:25.386Z,9.00
2019-03-05T08:20:56.033Z,9.20
2019-03-05T08:23:26.716Z,9.00
2019-03-05T08:25:57.256Z,9.00
2019-03-05T08:28:28.016Z,8.80
2019-03-05T08:30:58.583Z,8.70
2019-03-05T08:33:29.208Z,8.50
2019-03-05T08:35:59.790Z,8.50
2019-03-05T08:38:31.451Z,8.50
2019-03-05T08:41:01.909Z,8.70
2019-03-05T08:43:32.532Z,8.60
2019-03-05T08:46:03.033Z,8.70
2019-03-05T08:48:33.485Z,8.80
2019-03-05T08:51:04.076Z,8.70
2019-03-05T08:53:34.751Z,8.80
2019-03-05T08:56:06.410Z,8.80
2019-03-05T08:58:36.991Z,8.80
2019-03-05T09:01:08.387Z,8.70
2019-03-05T09:03:39.056Z,9.00
2019-03-05T09:06:09.903Z,9.00
2019-03-05T09:08:40.374Z,9.30
2019-03-05T09:11:11.002Z,9.30
2019-03-05T09:13:41.715Z,9.50
2019-03-05T09:16:12.340Z,9.40
2019-03-05T09:18:43.275Z,9.40
2019-03-05T09:21:14.020Z,9.60
2019-03-05T09:23:45.727Z,9.60
2019-03-05T09:26:16.316Z,9.60
2019-03-05T09:28:46.919Z,9.80
2019-03-05T09:31:17.541Z,9.80
2019-03-05T09:33:48.148Z,9.80
2019-03-05T09:36:18.725Z,10.00
2019-03-05T09:38:49.299Z,10.30
2019-03-05T09:41:19.808Z,10.20
2019-03-05T09:43:50.376Z,10.10
2019-03-05T09:46:21.141Z,10.20
2019-03-05T09:48:51.781Z,10.30
2019-03-05T09:51:22.406Z,10.40
2019-03-05T09:53:53.595Z,10.40
2019-03-05T09:56:24.179Z,10.40
2019-03-05T09:58:54.627Z,10.30
2019-03-05T10:01:25.267Z,10.40
2019-03-05T10:03:55.816Z,10.40
2019-03-05T10:06:26.413Z,10.40
2019-03-05T10:08:57.006Z,10.40
2019-03-05T10:11:27.651Z,10.40
2019-03-05T10:13:58.264Z,10.40
2019-03-05T10:16:28.991Z,10.40
2019-03-05T10:18:59.766Z,10.70
2019-03-05T10:21:30.303Z,10.80
2019-03-05T10:24:09.957Z,10.60
2019-03-05T10:26:33.288Z,10.70
2019-03-05T10:29:04.760Z,10.80
2019-03-05T10:31:35.522Z,10.90
2019-03-05T10:34:06.193Z,11.00
2019-03-05T10:36:36.819Z,11.20
2019-03-05T10:39:29.845Z,11.20
2019-03-05T10:41:53.722Z,11.20
2019-03-05T10:44:24.379Z,11.10
2019-03-05T10:46:56.128Z,11.00
2019-03-05T10:49:26.943Z,11.00
2019-03-05T10:51:58.888Z,10.70
2019-03-05T10:54:29.652Z,10.60
2019-03-05T10:57:01.379Z,10.80
2019-03-05T10:59:32.051Z,10.80
2019-03-05T11:02:02.565Z,10.80
2019-03-05T11:04:33.496Z,10.80
2019-03-05T11:07:04.041Z,10.70
2019-03-05T11:09:34.562Z,10.40
2019-03-05T11:12:05.974Z,10.20
2019-03-05T11:14:37.580Z,10.00
2019-03-05T11:17:08.228Z,10.10
2019-03-05T11:19:38.839Z,10.40
2019-03-05T11:22:09.365Z,10.50
2019-03-05T11:24:39.943Z,10.50
2019-03-05T11:27:10.585Z,10.40
2019-03-05T11:29:41.178Z,10.60
2019-03-05T11:32:11.697Z,10.60
2019-03-05T11:34:42.329Z,10.70
2019-03-05T11:37:12.963Z,10.70
2019-03-05T11:39:43.605Z,10.70
2019-03-05T11:42:15.091Z,10.70
2019-03-05T11:44:58.882Z,10.70
2019-03-05T11:47:17.683Z,10.20
2019-03-05T11:49:49.231Z,10.30
2019-03-05T11:52:19.773Z,10.30
2019-03-05T11:54:50.275Z,10.30
2019-03-05T11:57:20.961Z,10.30
2019-03-05T11:59:51.718Z,10.30
2019-03-05T12:02:22.228Z,10.20
2019-03-05T12:04:52.761Z,10.10
2019-03-05T12:07:23.404Z,10.10
2019-03-05T12:09:54.027Z,10.00
2019-03-05T12:12:24.552Z,9.90
2019-03-05T12:14:56.071Z,9.90
2019-03-05T12:17:26.554Z,9.80
2019-03-05T12:19:57.125Z,10.10
2019-03-05T12:22:28.000Z,10.20
2019-03-05T12:25:01.710Z,10.10
2019-03-05T12:27:30.865Z,10.10
2019-03-05T12:30:01.420Z,10.00
2019-03-05T12:32:32.283Z,10.00
2019-03-05T12:35:02.783Z,9.90
2019-03-05T12:37:33.312Z,9.80
2019-03-05T12:40:03.739Z,9.80
2019-03-05T12:42:34.333Z,9.90
2019-03-05T12:45:05.567Z,10.20
2019-03-05T12:47:36.429Z,10.30
2019-03-05T12:50:08.895Z,10.40
2019-03-05T12:52:39.519Z,10.40
2019-03-05T12:55:10.901Z,9.90
2019-03-05T12:57:41.599Z,9.80
2019-03-05T13:00:17.603Z,9.40
2019-03-05T13:02:48.435Z,9.30
2019-03-05T13:05:19.248Z,9.20
2019-03-05T13:07:52.498Z,9.10
2019-03-05T13:10:22.675Z,9.10
2019-03-05T13:12:53.165Z,9.10
2019-03-05T13:15:27.247Z,9.00
2019-03-05T13:17:57.858Z,8.90
2019-03-05T13:20:28.479Z,8.70
2019-03-05T13:22:59.272Z,8.60
2019-03-05T13:25:30.039Z,8.70
2019-03-05T13:28:01.969Z,8.70
2019-03-05T13:30:33.023Z,8.90
2019-03-05T13:33:03.617Z,9.00
2019-03-05T13:35:34.228Z,9.10
2019-03-05T13:38:07.392Z,9.20
2019-03-05T13:40:38.754Z,9.20
2019-03-05T13:43:09.973Z,9.20
2019-03-05T13:45:43.767Z,9.10
2019-03-05T13:48:23.357Z,9.10
2019-03-05T13:51:56.084Z,9.10
2019-03-05T13:54:49.753Z,9.00
2019-03-05T13:57:43.460Z,8.80
2019-03-05T14:00:13.670Z,8.40
2019-03-05T14:03:03.319Z,7.80
2019-03-05T14:06:12.559Z,7.70
2019-03-05T14:09:22.379Z,7.90
2019-03-05T14:11:53.685Z,8.20
2019-03-05T14:14:31.142Z,8.20
2019-03-05T14:17:08.598Z,7.90
2019-03-05T14:19:39.133Z,7.90
2019-03-05T14:22:09.650Z,8.40
2019-03-05T14:24:40.218Z,8.40
2019-03-05T14:27:10.703Z,8.70
2019-03-05T14:29:41.205Z,9.30
2019-03-05T14:32:11.907Z,9.60
2019-03-05T14:34:43.559Z,10.00
2019-03-05T14:37:14.055Z,10.30
2019-03-05T14:39:45.276Z,10.40
2019-03-05T14:42:15.858Z,10.30
2019-03-05T14:44:47.210Z,10.10
2019-03-05T14:47:17.702Z,10.10
2019-03-05T14:49:48.160Z,10.00
2019-03-05T14:52:18.721Z,9.90
2019-03-05T14:54:49.328Z,9.80
2019-03-05T14:57:20.067Z,9.70
2019-03-05T14:59:50.643Z,9.60
2019-03-05T15:02:21.226Z,8.80
2019-03-05T15:04:51.722Z,7.50
2019-03-05T15:07:22.323Z,6.90
2019-03-05T15:09:52.946Z,7.10
2019-03-05T15:12:23.522Z,7.20
2019-03-05T15:14:55.161Z,7.30
2019-03-05T15:17:25.887Z,7.40
2019-03-05T15:19:56.506Z,7.40
2019-03-05T15:22:27.136Z,7.50
2019-03-05T15:24:57.793Z,7.70
2019-03-05T15:27:29.405Z,7.80
2019-03-05T15:29:59.937Z,7.90
2019-03-05T15:32:30.568Z,8.00
2019-03-05T15:35:01.365Z,8.10
2019-03-05T15:37:32.960Z,8.20
2019-03-05T15:40:03.570Z,8.20
2019-03-05T15:42:34.141Z,8.20
2019-03-05T15:45:05.281Z,8.30
2019-03-05T15:47:35.965Z,8.20
2019-03-05T15:50:06.934Z,8.20
2019-03-05T15:52:37.685Z,8.20
2019-03-05T15:55:09.078Z,8.20
2019-03-05T15:57:39.629Z,8.10
2019-03-05T16:00:18.588Z,8.10
2019-03-05T16:02:53.202Z,8.10
2019-03-05T16:05:23.934Z,8.10
2019-03-05T16:07:54.454Z,8.10
2019-03-05T16:10:25.017Z,8.10
2019-03-05T16:12:55.816Z,8.10
2019-03-05T16:15:26.477Z,8.10
2019-03-05T16:17:57.109Z,8.10
2019-03-05T16:20:29.608Z,8.10
2019-03-05T16:22:59.864Z,8.00
2019-03-05T16:25:30.582Z,8.00
2019-03-05T16:28:06.225Z,8.00
2019-03-05T16:31:11.293Z,8.00
2019-03-05T16:34:13.196Z,8.00
2019-03-05T16:36:57.959Z,8.00
2019-03-05T16:39:59.768Z,7.90
2019-03-05T16:42:58.203Z,8.00
2019-03-05T16:45:40.719Z,7.80
2019-03-05T16:48:18.170Z,7.20
2019-03-05T16:51:06.431Z,6.60
2019-03-05T16:53:58.945Z,6.20
2019-03-05T16:56:40.317Z,5.90
2019-03-05T16:59:36.038Z,5.80
2019-03-05T17:02:26.530Z,5.60
2019-03-05T17:05:17.076Z,5.50
2019-03-05T17:08:06.826Z,5.40
2019-03-05T17:10:49.202Z,5.40
2019-03-05T17:13:19.883Z,5.30
2019-03-05T17:15:52.926Z,5.30
2019-03-05T17:18:24.835Z,5.20
2019-03-05T17:20:55.869Z,5.00
2019-03-05T17:23:26.473Z,4.60
2019-03-05T17:25:57.169Z,4.10
2019-03-05T17:28:27.698Z,3.60
2019-03-05T17:30:58.373Z,3.30
2019-03-05T17:33:30.340Z,3.20
2019-03-05T17:36:02.732Z,3.00
2019-03-05T17:38:33.960Z,2.80
2019-03-05T17:41:07.230Z,2.70
2019-03-05T17:43:37.900Z,2.60
2019-03-05T17:46:08.733Z,2.60
2019-03-05T17:48:39.345Z,2.50
2019-03-05T17:51:09.917Z,2.60
2019-03-05T17:53:40.732Z,2.60
2019-03-05T17:56:11.968Z,2.70
2019-03-05T17:58:42.853Z,2.70
2019-03-05T18:01:13.636Z,2.70
2019-03-05T18:03:44.420Z,2.80
2019-03-05T18:06:14.956Z,2.80
2019-03-05T18:08:45.886Z,2.70
2019-03-05T18:11:16.614Z,2.70
2019-03-05T18:13:49.195Z,2.70
2019-03-05T18:16:20.127Z,2.80
2019-03-05T18:18:50.802Z,2.70
2019-03-05T18:21:21.475Z,2.80
2019-03-05T18:23:53.260Z,2.80
2019-03-05T18:26:23.876Z,2.80
2019-03-05T18:28:54.500Z,2.80
2019-03-05T18:31:25.052Z,2.80
2019-03-05T18:33:55.686Z,2.80
2019-03-05T18:36:26.214Z,2.80
2019-03-05T18:38:56.746Z,2.90
2019-03-05T18:41:28.885Z,2.90
2019-03-05T18:43:59.582Z,2.90
2019-03-05T18:46:30.474Z,2.90
2019-03-05T18:49:01.190Z,2.80
2019-03-05T18:51:31.843Z,2.80
2019-03-05T18:54:02.446Z,2.80
2019-03-05T18:56:33.046Z,2.70
2019-03-05T18:59:03.624Z,2.70
2019-03-05T19:01:34.318Z,2.60
2019-03-05T19:04:04.966Z,2.70
2019-03-05T19:06:36.683Z,2.70
2019-03-05T19:09:08.118Z,2.80
2019-03-05T19:11:40.282Z,2.80
2019-03-05T19:14:10.910Z,2.80
2019-03-05T19:16:41.481Z,2.80
2019-03-05T19:19:12.072Z,2.80
2019-03-05T19:21:43.780Z,2.90
2019-03-05T19:24:18.163Z,2.90
2019-03-05T19:26:50.003Z,2.90
2019-03-05T19:29:21.387Z,2.90
2019-03-05T19:31:52.085Z,2.90
2019-03-05T19:34:22.585Z,2.90
2019-03-05T19:36:53.093Z,2.90
2019-03-05T19:39:23.689Z,2.90
2019-03-05T19:41:56.310Z,2.90
2019-03-05T19:44:28.967Z,2.90
2019-03-05T19:46:59.664Z,2.90
2019-03-05T19:49:30.317Z,2.80
2019-03-05T19:52:02.202Z,2.80
2019-03-05T19:54:32.805Z,2.80
2019-03-05T19:57:03.360Z,2.80
2019-03-05T19:59:33.975Z,2.80
2019-03-05T20:02:04.893Z,2.70
2019-03-05T20:04:35.585Z,2.80
2019-03-05T20:07:06.131Z,2.80
2019-03-05T20:09:36.707Z,2.80
2019-03-05T20:12:07.744Z,2.80
2019-03-05T20:14:38.260Z,2.80
2019-03-05T20:17:08.840Z,2.90
2019-03-05T20:19:41.729Z,2.90
2019-03-05T20:22:13.876Z,2.90
2019-03-05T20:24:44.495Z,2.90
2019-03-05T20:27:16.341Z,2.90
2019-03-05T20:29:49.350Z,2.90
2019-03-05T20:32:27.532Z,2.90
2019-03-05T20:34:58.354Z,2.90
2019-03-05T20:37:29.117Z,2.90
2019-03-05T20:40:05.154Z,2.90
2019-03-05T20:42:41.146Z,2.90
2019-03-05T20:45:22.095Z,3.00
2019-03-05T20:47:53.780Z,2.90
2019-03-05T20:50:24.419Z,3.00
2019-03-05T20:52:55.166Z,3.00
2019-03-05T20:55:25.720Z,3.00
2019-03-05T20:57:56.420Z,3.00
2019-03-05T21:00:29.418Z,3.00
2019-03-05T21:03:02.055Z,3.00
2019-03-05T21:05:37.696Z,3.00
2019-03-05T21:08:09.548Z,3.10
2019-03-05T21:10:40.221Z,3.10
2019-03-05T21:13:12.916Z,3.10
2019-03-05T21:15:43.461Z,3.00
2019-03-05T21:18:14.201Z,3.10
2019-03-05T21:20:44.931Z,3.20
2019-03-05T21:23:16.521Z,3.20
2019-03-05T21:25:47.192Z,3.20
2019-03-05T21:28:17.842Z,3.20
2019-03-05T21:30:48.399Z,3.20
2019-03-05T21:33:19.021Z,3.20
2019-03-05T21:35:49.719Z,3.10
2019-03-05T21:38:20.325Z,3.10
2019-03-05T21:40:51.004Z,3.10
2019-03-05T21:43:21.571Z,3.10
2019-03-05T21:45:52.787Z,3.10
2019-03-05T21:48:23.513Z,3.10
2019-03-05T21:50:54.121Z,3.10
2019-03-05T21:53:24.826Z,3.10
2019-03-05T21:55:55.648Z,3.10
2019-03-05T21:58:26.324Z,3.20
2019-03-05T22:00:56.911Z,3.20
2019-03-05T22:03:27.475Z,3.20
2019-03-05T22:05:58.086Z,3.30
2019-03-05T22:08:28.688Z,3.40
2019-03-05T22:10:59.491Z,3.40
2019-03-05T22:13:30.021Z,3.50
2019-03-05T22:16:01.625Z,3.60
2019-03-05T22:18:32.379Z,3.60
2019-03-05T22:21:02.879Z,3.70
2019-03-05T22:23:33.601Z,3.70
2019-03-05T22:26:06.348Z,3.80
2019-03-05T22:28:37.661Z,3.80
2019-03-05T22:31:08.488Z,3.80
2019-03-05T22:33:39.158Z,3.80
2019-03-05T22:36:09.782Z,3.80
2019-03-05T22:38:40.259Z,3.80
2019-03-05T22:41:10.794Z,3.80
2019-03-05T22:43:41.364Z,3.80
2019-03-05T22:46:11.926Z,3.80
2019-03-05T22:48:43.525Z,3.90
2019-03-05T22:51:14.457Z,3.90
2019-03-05T22:53:45.148Z,4.00
2019-03-05T22:56:15.811Z,4.00
2019-03-05T22:58:46.356Z,4.00
2019-03-05T23:01:38.960Z,4.00
2019-03-05T23:04:11.678Z,4.00
2019-03-05T23:06:43.215Z,3.90
2019-03-05T23:09:21.103Z,3.90
2019-03-05T23:11:52.024Z,4.00
2019-03-05T23:14:23.151Z,4.00
2019-03-05T23:16:55.680Z,4.00
2019-03-05T23:19:27.608Z,4.10
2019-03-05T23:21:58.328Z,4.10
2019-03-05T23:24:29.124Z,4.10
2019-03-05T23:26:59.699Z,4.10
2019-03-05T23:29:49.182Z,4.30
2019-03-05T23:32:19.943Z,4.30
2019-03-05T23:34:50.722Z,4.30
2019-03-05T23:37:21.288Z,4.40
2019-03-05T23:39:51.819Z,4.40
2019-03-05T23:42:23.109Z,4.40
2019-03-05T23:44:53.703Z,4.40
2019-03-05T23:47:30.489Z,4.30
2019-03-05T23:50:01.068Z,4.30
2019-03-05T23:52:31.582Z,4.20
2019-03-05T23:55:02.529Z,4.20
2019-03-05T23:57:33.101Z,4.10
